AirNav   SIMCOM
 
 1584 users online  

3AZ6 Banner Del E Webb Medical Center Heliport
Sun City West, Arizona, USA

GOING TO SUN CITY WEST?


FAA INFORMATION EFFECTIVE 20 JULY 2017

Location

FAA Identifier: 3AZ6
Lat/Long: 33-39-33.6600N / 112-22-24.5400W
33-39.561000N / 112-22.409000W
33.6593500 / -112.3734833
(estimated)
Elevation: 1255 ft. / 383 m (estimated)
Variation: 13E (1985)
Time zone: UTC -7 (year round; does not observe DST)
Zip code: 85375

Heliport Operations

Heliport use: Private use, MEDICAL USE
Activation date: 04/1988
Control tower: no
ARTCC: ALBUQUERQUE CENTER
FSS: PRESCOTT FLIGHT SERVICE STATION
Attendance: UNATNDD
Wind indicator: yes
Segmented circle: no

Heliport Communications

WX AWOS-3 at GEU (9 nm SE): 119.425 (623-877-8609)
WX ASOS at DVT (15 nm E): PHONE 623-587-7764

Nearby radio navigation aids

VOR radial/distance  VOR name  Freq  Var
PXRr292/24.3PHOENIX VORTAC115.6012E
BXKr047/25.7BUCKEYE VORTAC110.6014E

 
NDB name  Hdg/Dist  Freq  Var  ID
CHANDLER298/36.840712ECHD -.-. .... -..

Heliport Services

Runway Information

Helipad H1

Dimensions: 50 x 50 ft. / 15 x 15 m
Surface: concrete
Runway edge lights: PERIMETER LGTS
Latitude: 33-39.561000N
Longitude: 112-22.409000W
Elevation: 1255.0 ft.
Traffic pattern: leftleft

Heliport Ownership and Management from official FAA records

Ownership: Privately-owned
Owner: BANNER DEL E. WEBB MEDICAL CENTER
14502 W MEEKER BLVD
SUN CITY WEST, AZ 85375
Phone (623) 524-4089
Manager: CHRIS CARLTON
14502 W MEEKER BLVD
SUN CITY WEST, AZ 85375
Phone (623) 524-4433

Instrument Procedures

There are no published instrument procedures at 3AZ6.

Some nearby airports with instrument procedures:

KLUF - Luke Air Force Base (7 nm S)
KGEU - Glendale Municipal Airport (9 nm SE)
KGYR - Phoenix Goodyear Airport (14 nm S)
KDVT - Phoenix Deer Valley Airport (15 nm E)
KPHX - Phoenix Sky Harbor International Airport (23 nm SE)
 
Loc | Ops | Rwys | IFR | FBO | Links
Com | Nav | Svcs | Stats | Notes


 
Area around 3AZ6 (Banner Del E Webb Medical Center Heliport)
 
Road maps at: MapQuest Bing Google
 
Aerial photo
No photo
 
Sectional chart

 
Airport distance calculator
Flying to Banner Del E Webb Medical Center Heliport? Find the distance to fly.

From to 3AZ6

Sunrise and sunset
Times for 27-Jul-2017
 Local
(UTC-7)
 Zulu
(UTC)
Morning civil twilight05:1112:11
Sunrise05:3912:39
Sunset19:3302:33
Evening civil twilight20:0003:00

Current date and time
Zulu (UTC)  27-Jul-2017 15:48:36
Local (UTC-7)  27-Jul-2017 08:48:36
 
METAR
KGEU 
8nm SE 
271447Z 20010KT 10SM FEW150 SCT200 SCT250 33/14 A2991
KLUF 
9nm S 
271458Z 21003KT 10SM FEW200 33/15 A2989 RMK AO2A SLP105 T03340146 52005 $
KGYR 
15nm S 
271447Z 22009KT 10SM FEW120 FEW180 FEW250 32/17 A2990
KDVT 
15nm E 
271453Z 00000KT 10SM CLR 33/16 A2991 RMK AO2 SLP100 T03280156 53006
TAF
KLUF 
9nm S 
271201Z 2712/2818 22008KT 9999 FEW100 QNH2980INS BECMG 2722/2723 24009KT 9999 FEW150 QNH2975INS TEMPO 2801/2804 23012G18KT BECMG 2810/2811 21009KT 9999 FEW080 BKN110 QNH2983INS TEMPO 2814/2816 21010G15KT BKN090 OVC120 TX41/2723Z TN29/2811Z
NOTAMs
Click for the latest NOTAMs
NOTAMs are issued by the DoD/FAA and will open in a separate window not controlled by AirNav.

 

 
 

Would you like to see your business listed on this page?

 If your business provides an interesting product or service to pilots, flight crews, aircraft, or users of the Banner Del E Webb Medical Center Heliport, you should consider listing it here.  To start the listing process, click on the button below
 
Add a business
 

Other Pages about Banner Del E Webb Medical Center Heliport

Update a link
 
Copyright © AirNav, LLC. All rights reserved. Privacy Policy  Contact